sensor_id;sensor_type;location;lat;lon;timestamp;temperature;humidity
28761;DHT22;15917;50.014;8.352;2022-12-07T00:01:37;4.40;99.90
28761;DHT22;15917;50.014;8.352;2022-12-07T00:04:08;4.40;99.90
28761;DHT22;15917;50.014;8.352;2022-12-07T00:06:45;4.40;99.90
28761;DHT22;15917;50.014;8.352;2022-12-07T00:09:16;4.50;99.90
28761;DHT22;15917;50.014;8.352;2022-12-07T00:11:42;4.50;99.90
28761;DHT22;15917;50.014;8.352;2022-12-07T00:14:12;4.50;99.90
28761;DHT22;15917;50.014;8.352;2022-12-07T00:16:37;4.50;99.90
28761;DHT22;15917;50.014;8.352;2022-12-07T00:19:04;4.50;99.90
28761;DHT22;15917;50.014;8.352;2022-12-07T00:21:34;4.50;99.90
28761;DHT22;15917;50.014;8.352;2022-12-07T00:24:01;4.50;99.90
28761;DHT22;15917;50.014;8.352;2022-12-07T00:26:29;4.40;99.90
28761;DHT22;15917;50.014;8.352;2022-12-07T00:29:02;4.40;99.90
28761;DHT22;15917;50.014;8.352;2022-12-07T00:31:34;4.40;99.90
28761;DHT22;15917;50.014;8.352;2022-12-07T00:34:01;4.40;99.90
28761;DHT22;15917;50.014;8.352;2022-12-07T00:36:28;4.40;99.90
28761;DHT22;15917;50.014;8.352;2022-12-07T00:38:54;4.40;99.90
28761;DHT22;15917;50.014;8.352;2022-12-07T00:41:22;4.40;99.90
28761;DHT22;15917;50.014;8.352;2022-12-07T00:43:49;4.40;99.90
28761;DHT22;15917;50.014;8.352;2022-12-07T00:46:16;4.30;99.90
28761;DHT22;15917;50.014;8.352;2022-12-07T00:48:42;4.30;99.90
28761;DHT22;15917;50.014;8.352;2022-12-07T00:51:09;4.30;99.90
28761;DHT22;15917;50.014;8.352;2022-12-07T00:53:36;4.30;99.90
28761;DHT22;15917;50.014;8.352;2022-12-07T00:56:09;4.40;99.90
28761;DHT22;15917;50.014;8.352;2022-12-07T00:58:36;4.40;99.90
28761;DHT22;15917;50.014;8.352;2022-12-07T01:01:03;4.40;99.90
28761;DHT22;15917;50.014;8.352;2022-12-07T01:03:30;4.40;99.90
28761;DHT22;15917;50.014;8.352;2022-12-07T01:05:56;4.40;99.90
28761;DHT22;15917;50.014;8.352;2022-12-07T01:08:24;4.40;99.90
28761;DHT22;15917;50.014;8.352;2022-12-07T01:10:58;4.40;99.90
28761;DHT22;15917;50.014;8.352;2022-12-07T01:13:24;4.40;99.90
28761;DHT22;15917;50.014;8.352;2022-12-07T01:15:50;4.40;99.90
28761;DHT22;15917;50.014;8.352;2022-12-07T01:18:16;4.40;99.90
28761;DHT22;15917;50.014;8.352;2022-12-07T01:20:41;4.40;99.90
28761;DHT22;15917;50.014;8.352;2022-12-07T01:23:07;4.40;99.90
28761;DHT22;15917;50.014;8.352;2022-12-07T01:25:32;4.40;99.90
28761;DHT22;15917;50.014;8.352;2022-12-07T01:27:58;4.40;99.90
28761;DHT22;15917;50.014;8.352;2022-12-07T01:30:23;4.40;99.90
28761;DHT22;15917;50.014;8.352;2022-12-07T01:32:49;4.40;99.90
28761;DHT22;15917;50.014;8.352;2022-12-07T01:35:15;4.40;99.90
28761;DHT22;15917;50.014;8.352;2022-12-07T01:37:40;4.40;99.90
28761;DHT22;15917;50.014;8.352;2022-12-07T01:40:07;4.50;99.90
28761;DHT22;15917;50.014;8.352;2022-12-07T01:42:33;4.40;99.90
28761;DHT22;15917;50.014;8.352;2022-12-07T01:47:47;4.40;99.90
28761;DHT22;15917;50.014;8.352;2022-12-07T01:50:15;4.40;99.90
28761;DHT22;15917;50.014;8.352;2022-12-07T01:52:42;4.40;99.90
28761;DHT22;15917;50.014;8.352;2022-12-07T01:55:12;4.40;99.90
28761;DHT22;15917;50.014;8.352;2022-12-07T01:57:41;4.40;99.90
28761;DHT22;15917;50.014;8.352;2022-12-07T02:00:09;4.40;99.90
28761;DHT22;15917;50.014;8.352;2022-12-07T02:02:51;4.40;99.90
28761;DHT22;15917;50.014;8.352;2022-12-07T02:05:19;4.40;99.90
28761;DHT22;15917;50.014;8.352;2022-12-07T02:07:47;4.40;99.90
28761;DHT22;15917;50.014;8.352;2022-12-07T02:10:22;4.40;99.90
28761;DHT22;15917;50.014;8.352;2022-12-07T02:12:52;4.40;99.90
28761;DHT22;15917;50.014;8.352;2022-12-07T02:15:21;4.40;99.90
28761;DHT22;15917;50.014;8.352;2022-12-07T02:18:09;4.40;99.90
28761;DHT22;15917;50.014;8.352;2022-12-07T02:21:05;4.40;99.90
28761;DHT22;15917;50.014;8.352;2022-12-07T02:26:44;4.40;99.90
28761;DHT22;15917;50.014;8.352;2022-12-07T02:29:26;4.40;99.90
28761;DHT22;15917;50.014;8.352;2022-12-07T02:36:55;4.40;99.90
28761;DHT22;15917;50.014;8.352;2022-12-07T02:39:33;4.40;99.90
28761;DHT22;15917;50.014;8.352;2022-12-07T02:42:14;4.40;99.90
28761;DHT22;15917;50.014;8.352;2022-12-07T02:44:41;4.40;99.90
28761;DHT22;15917;50.014;8.352;2022-12-07T02:47:10;4.30;99.90
28761;DHT22;15917;50.014;8.352;2022-12-07T02:49:38;4.40;99.90
28761;DHT22;15917;50.014;8.352;2022-12-07T02:52:05;4.40;99.90
28761;DHT22;15917;50.014;8.352;2022-12-07T02:54:30;4.40;99.90
28761;DHT22;15917;50.014;8.352;2022-12-07T02:57:53;4.40;99.90
28761;DHT22;15917;50.014;8.352;2022-12-07T03:00:08;4.40;99.90
28761;DHT22;15917;50.014;8.352;2022-12-07T03:02:36;4.40;99.90
28761;DHT22;15917;50.014;8.352;2022-12-07T03:11:10;4.40;99.90
28761;DHT22;15917;50.014;8.352;2022-12-07T03:16:21;4.30;99.90
28761;DHT22;15917;50.014;8.352;2022-12-07T03:19:01;4.30;99.90
28761;DHT22;15917;50.014;8.352;2022-12-07T03:21:38;4.40;99.90
28761;DHT22;15917;50.014;8.352;2022-12-07T03:24:11;4.30;99.90
28761;DHT22;15917;50.014;8.352;2022-12-07T03:27:27;4.30;99.90
28761;DHT22;15917;50.014;8.352;2022-12-07T03:29:34;4.30;99.90
28761;DHT22;15917;50.014;8.352;2022-12-07T03:32:17;4.30;99.90
28761;DHT22;15917;50.014;8.352;2022-12-07T03:34:52;4.30;99.90
28761;DHT22;15917;50.014;8.352;2022-12-07T03:43:16;4.40;99.90
28761;DHT22;15917;50.014;8.352;2022-12-07T03:45:44;4.30;99.90
28761;DHT22;15917;50.014;8.352;2022-12-07T03:51:14;4.40;99.90
28761;DHT22;15917;50.014;8.352;2022-12-07T03:53:50;4.40;99.90
28761;DHT22;15917;50.014;8.352;2022-12-07T03:56:18;4.40;99.90
28761;DHT22;15917;50.014;8.352;2022-12-07T03:58:45;4.40;99.90
28761;DHT22;15917;50.014;8.352;2022-12-07T04:01:11;4.40;99.90
28761;DHT22;15917;50.014;8.352;2022-12-07T04:03:37;4.30;99.90
28761;DHT22;15917;50.014;8.352;2022-12-07T04:06:02;4.30;99.90
28761;DHT22;15917;50.014;8.352;2022-12-07T04:08:28;4.30;99.90
28761;DHT22;15917;50.014;8.352;2022-12-07T04:10:54;4.30;99.90
28761;DHT22;15917;50.014;8.352;2022-12-07T04:13:19;4.30;99.90
28761;DHT22;15917;50.014;8.352;2022-12-07T04:15:45;4.30;99.90
28761;DHT22;15917;50.014;8.352;2022-12-07T04:18:10;4.30;99.90
28761;DHT22;15917;50.014;8.352;2022-12-07T04:20:36;4.30;99.90
28761;DHT22;15917;50.014;8.352;2022-12-07T04:23:02;4.30;99.90
28761;DHT22;15917;50.014;8.352;2022-12-07T04:25:27;4.30;99.90
28761;DHT22;15917;50.014;8.352;2022-12-07T04:27:53;4.30;99.90
28761;DHT22;15917;50.014;8.352;2022-12-07T04:30:19;4.30;99.90
28761;DHT22;15917;50.014;8.352;2022-12-07T04:32:44;4.40;99.90
28761;DHT22;15917;50.014;8.352;2022-12-07T04:35:10;4.40;99.90
28761;DHT22;15917;50.014;8.352;2022-12-07T04:37:36;4.40;99.90
28761;DHT22;15917;50.014;8.352;2022-12-07T04:40:01;4.40;99.90
28761;DHT22;15917;50.014;8.352;2022-12-07T04:42:27;4.40;99.90
28761;DHT22;15917;50.014;8.352;2022-12-07T04:44:53;4.40;99.90
28761;DHT22;15917;50.014;8.352;2022-12-07T04:47:18;4.40;99.90
28761;DHT22;15917;50.014;8.352;2022-12-07T04:49:44;4.40;99.90
28761;DHT22;15917;50.014;8.352;2022-12-07T04:52:09;4.40;99.90
28761;DHT22;15917;50.014;8.352;2022-12-07T04:54:35;4.40;99.90
28761;DHT22;15917;50.014;8.352;2022-12-07T04:57:00;4.50;99.90
28761;DHT22;15917;50.014;8.352;2022-12-07T04:59:26;4.50;99.90
28761;DHT22;15917;50.014;8.352;2022-12-07T05:01:52;4.50;99.90
28761;DHT22;15917;50.014;8.352;2022-12-07T05:04:17;4.60;99.90
28761;DHT22;15917;50.014;8.352;2022-12-07T05:06:43;4.60;99.90
28761;DHT22;15917;50.014;8.352;2022-12-07T05:09:09;4.70;99.90
28761;DHT22;15917;50.014;8.352;2022-12-07T05:11:34;4.70;99.90
28761;DHT22;15917;50.014;8.352;2022-12-07T05:14:05;4.70;99.90
28761;DHT22;15917;50.014;8.352;2022-12-07T05:16:31;4.70;99.90
28761;DHT22;15917;50.014;8.352;2022-12-07T05:18:57;4.70;99.90
28761;DHT22;15917;50.014;8.352;2022-12-07T05:21:23;4.80;99.90
28761;DHT22;15917;50.014;8.352;2022-12-07T05:23:49;4.80;99.90
28761;DHT22;15917;50.014;8.352;2022-12-07T05:26:14;4.80;99.90
28761;DHT22;15917;50.014;8.352;2022-12-07T05:28:40;4.80;99.90
28761;DHT22;15917;50.014;8.352;2022-12-07T05:31:06;4.80;99.90
28761;DHT22;15917;50.014;8.352;2022-12-07T05:33:31;4.80;99.90
28761;DHT22;15917;50.014;8.352;2022-12-07T05:35:57;4.90;99.90
28761;DHT22;15917;50.014;8.352;2022-12-07T05:38:23;4.90;99.90
28761;DHT22;15917;50.014;8.352;2022-12-07T05:40:50;4.90;99.90
28761;DHT22;15917;50.014;8.352;2022-12-07T05:43:16;4.80;99.90
28761;DHT22;15917;50.014;8.352;2022-12-07T05:45:41;4.90;99.90
28761;DHT22;15917;50.014;8.352;2022-12-07T05:48:07;4.90;99.90
28761;DHT22;15917;50.014;8.352;2022-12-07T05:50:33;4.90;99.90
28761;DHT22;15917;50.014;8.352;2022-12-07T05:53:01;5.00;99.90
28761;DHT22;15917;50.014;8.352;2022-12-07T05:55:27;5.00;99.90
28761;DHT22;15917;50.014;8.352;2022-12-07T05:57:52;5.00;99.90
28761;DHT22;15917;50.014;8.352;2022-12-07T06:00:37;5.00;99.90
28761;DHT22;15917;50.014;8.352;2022-12-07T06:03:02;5.00;99.90
28761;DHT22;15917;50.014;8.352;2022-12-07T06:05:28;5.00;99.90
28761;DHT22;15917;50.014;8.352;2022-12-07T06:07:53;5.10;99.90
28761;DHT22;15917;50.014;8.352;2022-12-07T06:10:19;5.10;99.90
28761;DHT22;15917;50.014;8.352;2022-12-07T06:12:45;5.10;99.90
28761;DHT22;15917;50.014;8.352;2022-12-07T06:15:12;5.10;99.90
28761;DHT22;15917;50.014;8.352;2022-12-07T06:17:38;5.10;99.90
28761;DHT22;15917;50.014;8.352;2022-12-07T06:20:05;5.10;99.90
28761;DHT22;15917;50.014;8.352;2022-12-07T06:22:30;5.10;99.90
28761;DHT22;15917;50.014;8.352;2022-12-07T06:24:56;5.20;99.90
28761;DHT22;15917;50.014;8.352;2022-12-07T06:27:22;5.20;99.90
28761;DHT22;15917;50.014;8.352;2022-12-07T06:29:47;5.20;99.90
28761;DHT22;15917;50.014;8.352;2022-12-07T06:32:13;5.30;99.90
28761;DHT22;15917;50.014;8.352;2022-12-07T06:34:38;5.30;99.90
28761;DHT22;15917;50.014;8.352;2022-12-07T06:37:04;5.30;99.90
28761;DHT22;15917;50.014;8.352;2022-12-07T06:39:30;5.30;99.90
28761;DHT22;15917;50.014;8.352;2022-12-07T06:41:56;5.30;99.90
28761;DHT22;15917;50.014;8.352;2022-12-07T06:44:23;5.30;99.90
28761;DHT22;15917;50.014;8.352;2022-12-07T06:46:49;5.30;99.90
28761;DHT22;15917;50.014;8.352;2022-12-07T06:49:15;5.30;99.90
28761;DHT22;15917;50.014;8.352;2022-12-07T06:51:41;5.30;99.90
28761;DHT22;15917;50.014;8.352;2022-12-07T06:54:09;5.20;99.90
28761;DHT22;15917;50.014;8.352;2022-12-07T06:56:34;5.30;99.90
28761;DHT22;15917;50.014;8.352;2022-12-07T06:59:00;5.40;99.90
28761;DHT22;15917;50.014;8.352;2022-12-07T07:01:26;5.40;99.90
28761;DHT22;15917;50.014;8.352;2022-12-07T07:03:52;5.40;99.90
28761;DHT22;15917;50.014;8.352;2022-12-07T07:06:17;5.30;99.90
28761;DHT22;15917;50.014;8.352;2022-12-07T07:08:43;5.30;99.90
28761;DHT22;15917;50.014;8.352;2022-12-07T07:11:09;5.30;99.90
28761;DHT22;15917;50.014;8.352;2022-12-07T07:13:35;5.30;99.90
28761;DHT22;15917;50.014;8.352;2022-12-07T07:16:01;5.50;99.90
28761;DHT22;15917;50.014;8.352;2022-12-07T07:18:27;6.60;99.90
28761;DHT22;15917;50.014;8.352;2022-12-07T07:20:53;7.40;99.90
28761;DHT22;15917;50.014;8.352;2022-12-07T07:23:21;7.50;99.90
28761;DHT22;15917;50.014;8.352;2022-12-07T07:25:46;7.10;99.90
28761;DHT22;15917;50.014;8.352;2022-12-07T07:28:13;6.60;99.90
28761;DHT22;15917;50.014;8.352;2022-12-07T07:30:38;6.30;99.90
28761;DHT22;15917;50.014;8.352;2022-12-07T07:33:05;6.00;99.90
28761;DHT22;15917;50.014;8.352;2022-12-07T07:35:32;5.80;99.90
28761;DHT22;15917;50.014;8.352;2022-12-07T07:37:58;5.70;99.90
28761;DHT22;15917;50.014;8.352;2022-12-07T07:40:25;5.50;99.90
28761;DHT22;15917;50.014;8.352;2022-12-07T07:42:51;5.40;99.90
28761;DHT22;15917;50.014;8.352;2022-12-07T07:45:18;5.40;99.90
28761;DHT22;15917;50.014;8.352;2022-12-07T07:47:44;5.40;99.90
28761;DHT22;15917;50.014;8.352;2022-12-07T07:50:09;5.40;99.90
28761;DHT22;15917;50.014;8.352;2022-12-07T07:52:35;5.30;99.90
28761;DHT22;15917;50.014;8.352;2022-12-07T07:55:01;5.30;99.90
28761;DHT22;15917;50.014;8.352;2022-12-07T07:57:26;5.30;99.90
28761;DHT22;15917;50.014;8.352;2022-12-07T07:59:52;5.30;99.90
28761;DHT22;15917;50.014;8.352;2022-12-07T08:02:19;5.40;99.90
28761;DHT22;15917;50.014;8.352;2022-12-07T08:04:45;5.30;99.90
28761;DHT22;15917;50.014;8.352;2022-12-07T08:07:12;5.30;99.90
28761;DHT22;15917;50.014;8.352;2022-12-07T08:09:38;5.30;99.90
28761;DHT22;15917;50.014;8.352;2022-12-07T08:12:03;5.40;99.90
28761;DHT22;15917;50.014;8.352;2022-12-07T08:14:29;5.30;99.90
28761;DHT22;15917;50.014;8.352;2022-12-07T08:16:55;5.30;99.90
28761;DHT22;15917;50.014;8.352;2022-12-07T08:19:20;5.30;99.90
28761;DHT22;15917;50.014;8.352;2022-12-07T08:21:46;5.30;99.90
28761;DHT22;15917;50.014;8.352;2022-12-07T08:24:12;5.30;99.90
28761;DHT22;15917;50.014;8.352;2022-12-07T08:26:37;5.30;99.90
28761;DHT22;15917;50.014;8.352;2022-12-07T08:29:03;5.30;99.90
28761;DHT22;15917;50.014;8.352;2022-12-07T08:31:29;5.30;99.90
28761;DHT22;15917;50.014;8.352;2022-12-07T08:33:55;5.20;99.90
28761;DHT22;15917;50.014;8.352;2022-12-07T08:36:21;5.30;99.90
28761;DHT22;15917;50.014;8.352;2022-12-07T08:38:49;5.40;99.90
28761;DHT22;15917;50.014;8.352;2022-12-07T08:41:15;5.40;99.90
28761;DHT22;15917;50.014;8.352;2022-12-07T08:43:41;5.50;99.90
28761;DHT22;15917;50.014;8.352;2022-12-07T08:46:19;5.50;99.90
28761;DHT22;15917;50.014;8.352;2022-12-07T08:48:50;5.60;99.90
28761;DHT22;15917;50.014;8.352;2022-12-07T08:51:18;5.90;99.90
28761;DHT22;15917;50.014;8.352;2022-12-07T08:53:44;6.30;99.90
28761;DHT22;15917;50.014;8.352;2022-12-07T08:56:10;6.60;99.90
28761;DHT22;15917;50.014;8.352;2022-12-07T08:58:37;7.30;99.90
28761;DHT22;15917;50.014;8.352;2022-12-07T09:01:04;7.90;99.90
28761;DHT22;15917;50.014;8.352;2022-12-07T09:03:30;8.00;99.90
28761;DHT22;15917;50.014;8.352;2022-12-07T09:05:57;7.80;99.90
28761;DHT22;15917;50.014;8.352;2022-12-07T09:08:28;7.50;99.90
28761;DHT22;15917;50.014;8.352;2022-12-07T09:10:55;7.20;99.90
28761;DHT22;15917;50.014;8.352;2022-12-07T09:13:21;7.00;99.90
28761;DHT22;15917;50.014;8.352;2022-12-07T09:15:46;6.80;99.90
28761;DHT22;15917;50.014;8.352;2022-12-07T09:18:12;7.30;99.90
28761;DHT22;15917;50.014;8.352;2022-12-07T09:20:37;7.60;99.90
28761;DHT22;15917;50.014;8.352;2022-12-07T09:23:05;8.10;99.90
28761;DHT22;15917;50.014;8.352;2022-12-07T09:25:31;8.30;99.90
28761;DHT22;15917;50.014;8.352;2022-12-07T09:27:58;8.20;99.90
28761;DHT22;15917;50.014;8.352;2022-12-07T09:30:24;8.00;99.90
28761;DHT22;15917;50.014;8.352;2022-12-07T09:32:50;7.70;99.90
28761;DHT22;15917;50.014;8.352;2022-12-07T09:35:15;7.50;99.90
28761;DHT22;15917;50.014;8.352;2022-12-07T09:37:41;7.60;99.90
28761;DHT22;15917;50.014;8.352;2022-12-07T09:40:07;8.30;99.90
28761;DHT22;15917;50.014;8.352;2022-12-07T09:42:38;9.00;99.90
28761;DHT22;15917;50.014;8.352;2022-12-07T09:45:15;9.40;99.90
28761;DHT22;15917;50.014;8.352;2022-12-07T09:47:42;9.80;99.90
28761;DHT22;15917;50.014;8.352;2022-12-07T09:50:15;10.20;99.90
28761;DHT22;15917;50.014;8.352;2022-12-07T09:52:43;10.30;99.90
28761;DHT22;15917;50.014;8.352;2022-12-07T09:55:12;9.90;99.90
28761;DHT22;15917;50.014;8.352;2022-12-07T09:57:38;9.40;99.90
28761;DHT22;15917;50.014;8.352;2022-12-07T10:00:10;8.80;99.90
28761;DHT22;15917;50.014;8.352;2022-12-07T10:02:41;8.40;99.90
28761;DHT22;15917;50.014;8.352;2022-12-07T10:05:21;8.10;99.90
28761;DHT22;15917;50.014;8.352;2022-12-07T10:07:47;7.80;99.90
28761;DHT22;15917;50.014;8.352;2022-12-07T10:10:19;7.50;99.90
28761;DHT22;15917;50.014;8.352;2022-12-07T10:13:00;7.40;99.90
28761;DHT22;15917;50.014;8.352;2022-12-07T10:15:54;7.40;99.90
28761;DHT22;15917;50.014;8.352;2022-12-07T10:18:26;7.50;99.90
28761;DHT22;15917;50.014;8.352;2022-12-07T10:23:36;7.50;99.90
28761;DHT22;15917;50.014;8.352;2022-12-07T10:28:47;7.90;99.90
28761;DHT22;15917;50.014;8.352;2022-12-07T10:31:19;8.00;99.90
28761;DHT22;15917;50.014;8.352;2022-12-07T10:33:53;8.50;99.90
28761;DHT22;15917;50.014;8.352;2022-12-07T10:36:37;9.10;99.90
28761;DHT22;15917;50.014;8.352;2022-12-07T10:39:19;9.80;99.90
28761;DHT22;15917;50.014;8.352;2022-12-07T10:42:00;10.30;99.90
28761;DHT22;15917;50.014;8.352;2022-12-07T10:44:31;10.70;99.90
28761;DHT22;15917;50.014;8.352;2022-12-07T10:58:28;11.50;99.90
28761;DHT22;15917;50.014;8.352;2022-12-07T11:06:30;13.50;99.90
28761;DHT22;15917;50.014;8.352;2022-12-07T11:09:40;13.10;99.90
28761;DHT22;15917;50.014;8.352;2022-12-07T11:12:12;12.20;99.90
28761;DHT22;15917;50.014;8.352;2022-12-07T11:14:50;11.20;99.90
28761;DHT22;15917;50.014;8.352;2022-12-07T11:20:44;9.80;99.90
28761;DHT22;15917;50.014;8.352;2022-12-07T11:23:46;9.40;99.90
28761;DHT22;15917;50.014;8.352;2022-12-07T11:37:18;8.50;99.90
28761;DHT22;15917;50.014;8.352;2022-12-07T11:40:17;8.40;99.90
28761;DHT22;15917;50.014;8.352;2022-12-07T11:42:53;8.30;99.90
28761;DHT22;15917;50.014;8.352;2022-12-07T11:45:27;8.20;99.90
28761;DHT22;15917;50.014;8.352;2022-12-07T11:48:10;8.10;99.90
28761;DHT22;15917;50.014;8.352;2022-12-07T11:50:48;8.10;99.90
28761;DHT22;15917;50.014;8.352;2022-12-07T11:53:21;8.10;99.90
28761;DHT22;15917;50.014;8.352;2022-12-07T11:56:14;8.10;99.90
28761;DHT22;15917;50.014;8.352;2022-12-07T12:06:42;8.00;99.90
28761;DHT22;15917;50.014;8.352;2022-12-07T12:09:31;8.00;99.90
28761;DHT22;15917;50.014;8.352;2022-12-07T12:14:58;8.00;99.90
28761;DHT22;15917;50.014;8.352;2022-12-07T12:20:53;8.00;99.90
28761;DHT22;15917;50.014;8.352;2022-12-07T12:23:47;8.90;99.90
28761;DHT22;15917;50.014;8.352;2022-12-07T12:26:26;10.10;99.90
28761;DHT22;15917;50.014;8.352;2022-12-07T12:28:56;11.20;99.90
28761;DHT22;15917;50.014;8.352;2022-12-07T12:34:04;12.20;99.90
28761;DHT22;15917;50.014;8.352;2022-12-07T12:36:43;12.30;99.90
28761;DHT22;15917;50.014;8.352;2022-12-07T12:39:13;12.10;99.90
28761;DHT22;15917;50.014;8.352;2022-12-07T12:46:57;10.80;99.90
28761;DHT22;15917;50.014;8.352;2022-12-07T12:54:38;10.40;99.90
28761;DHT22;15917;50.014;8.352;2022-12-07T12:57:28;10.40;99.90
28761;DHT22;15917;50.014;8.352;2022-12-07T13:02:21;10.00;99.90
28761;DHT22;15917;50.014;8.352;2022-12-07T13:04:52;9.80;99.90
28761;DHT22;15917;50.014;8.352;2022-12-07T13:15:44;9.20;99.90
28761;DHT22;15917;50.014;8.352;2022-12-07T13:26:23;10.10;99.90
28761;DHT22;15917;50.014;8.352;2022-12-07T13:29:09;10.40;99.90
28761;DHT22;15917;50.014;8.352;2022-12-07T13:31:53;10.30;99.90
28761;DHT22;15917;50.014;8.352;2022-12-07T13:36:59;9.60;99.90
28761;DHT22;15917;50.014;8.352;2022-12-07T13:39:27;9.10;99.90
28761;DHT22;15917;50.014;8.352;2022-12-07T13:41:58;8.70;99.90
28761;DHT22;15917;50.014;8.352;2022-12-07T13:44:26;8.60;99.90
28761;DHT22;15917;50.014;8.352;2022-12-07T13:49:25;8.30;99.90
28761;DHT22;15917;50.014;8.352;2022-12-07T13:51:51;8.20;99.90
28761;DHT22;15917;50.014;8.352;2022-12-07T13:54:18;8.10;99.90
28761;DHT22;15917;50.014;8.352;2022-12-07T13:56:48;8.10;99.90
28761;DHT22;15917;50.014;8.352;2022-12-07T13:59:17;7.90;99.90
28761;DHT22;15917;50.014;8.352;2022-12-07T14:01:45;7.90;99.90
28761;DHT22;15917;50.014;8.352;2022-12-07T14:04:34;7.80;99.90
28761;DHT22;15917;50.014;8.352;2022-12-07T14:07:18;7.80;99.90
28761;DHT22;15917;50.014;8.352;2022-12-07T14:09:57;7.70;99.90
28761;DHT22;15917;50.014;8.352;2022-12-07T14:12:23;7.60;99.90
28761;DHT22;15917;50.014;8.352;2022-12-07T14:14:50;7.60;99.90
28761;DHT22;15917;50.014;8.352;2022-12-07T14:17:18;7.60;99.90
28761;DHT22;15917;50.014;8.352;2022-12-07T14:20:00;7.50;99.90
28761;DHT22;15917;50.014;8.352;2022-12-07T14:22:34;7.30;99.90
28761;DHT22;15917;50.014;8.352;2022-12-07T14:28:00;7.00;99.90
28761;DHT22;15917;50.014;8.352;2022-12-07T14:30:31;7.20;99.90
28761;DHT22;15917;50.014;8.352;2022-12-07T14:33:02;7.00;99.90
28761;DHT22;15917;50.014;8.352;2022-12-07T14:35:31;7.00;99.90
28761;DHT22;15917;50.014;8.352;2022-12-07T14:37:57;7.00;99.90
28761;DHT22;15917;50.014;8.352;2022-12-07T14:40:28;6.90;99.90
28761;DHT22;15917;50.014;8.352;2022-12-07T14:43:02;6.90;99.90
28761;DHT22;15917;50.014;8.352;2022-12-07T14:45:32;6.90;99.90
28761;DHT22;15917;50.014;8.352;2022-12-07T14:48:01;6.90;99.90
28761;DHT22;15917;50.014;8.352;2022-12-07T14:50:27;6.90;99.90
28761;DHT22;15917;50.014;8.352;2022-12-07T14:52:57;6.90;99.90
28761;DHT22;15917;50.014;8.352;2022-12-07T14:55:29;6.80;99.90
28761;DHT22;15917;50.014;8.352;2022-12-07T14:57:55;6.80;99.90
28761;DHT22;15917;50.014;8.352;2022-12-07T15:00:23;6.80;99.90
28761;DHT22;15917;50.014;8.352;2022-12-07T15:02:49;6.80;99.90
28761;DHT22;15917;50.014;8.352;2022-12-07T15:05:15;6.70;99.90
28761;DHT22;15917;50.014;8.352;2022-12-07T15:07:41;6.70;99.90
28761;DHT22;15917;50.014;8.352;2022-12-07T15:10:21;6.60;99.90
28761;DHT22;15917;50.014;8.352;2022-12-07T15:12:50;6.50;99.90
28761;DHT22;15917;50.014;8.352;2022-12-07T15:15:16;6.50;99.90
28761;DHT22;15917;50.014;8.352;2022-12-07T15:17:42;6.60;99.90
28761;DHT22;15917;50.014;8.352;2022-12-07T15:20:14;6.50;99.90
28761;DHT22;15917;50.014;8.352;2022-12-07T15:22:42;6.50;99.90
28761;DHT22;15917;50.014;8.352;2022-12-07T15:25:09;6.50;99.90
28761;DHT22;15917;50.014;8.352;2022-12-07T15:27:37;7.50;99.90
28761;DHT22;15917;50.014;8.352;2022-12-07T15:30:04;8.10;99.90
28761;DHT22;15917;50.014;8.352;2022-12-07T15:32:29;7.90;99.90
28761;DHT22;15917;50.014;8.352;2022-12-07T15:34:55;7.60;99.90
28761;DHT22;15917;50.014;8.352;2022-12-07T15:37:20;7.30;99.90
28761;DHT22;15917;50.014;8.352;2022-12-07T15:39:46;7.10;99.90
28761;DHT22;15917;50.014;8.352;2022-12-07T15:42:11;6.90;99.90
28761;DHT22;15917;50.014;8.352;2022-12-07T15:44:37;6.70;99.90
28761;DHT22;15917;50.014;8.352;2022-12-07T15:47:21;6.60;99.90
28761;DHT22;15917;50.014;8.352;2022-12-07T15:49:47;6.50;99.90
28761;DHT22;15917;50.014;8.352;2022-12-07T15:52:12;6.40;99.90
28761;DHT22;15917;50.014;8.352;2022-12-07T15:54:38;6.30;99.90
28761;DHT22;15917;50.014;8.352;2022-12-07T15:57:04;6.30;99.90
28761;DHT22;15917;50.014;8.352;2022-12-07T15:59:30;6.20;99.90
28761;DHT22;15917;50.014;8.352;2022-12-07T16:01:57;6.20;99.90
28761;DHT22;15917;50.014;8.352;2022-12-07T16:04:23;6.10;99.90
28761;DHT22;15917;50.014;8.352;2022-12-07T16:06:48;6.10;99.90
28761;DHT22;15917;50.014;8.352;2022-12-07T16:09:16;6.20;99.90
28761;DHT22;15917;50.014;8.352;2022-12-07T16:11:42;6.10;99.90
28761;DHT22;15917;50.014;8.352;2022-12-07T16:14:07;6.10;99.90
28761;DHT22;15917;50.014;8.352;2022-12-07T16:16:33;6.10;99.90
28761;DHT22;15917;50.014;8.352;2022-12-07T16:18:59;6.10;99.90
28761;DHT22;15917;50.014;8.352;2022-12-07T16:21:24;6.10;99.90
28761;DHT22;15917;50.014;8.352;2022-12-07T16:23:50;6.00;99.90
28761;DHT22;15917;50.014;8.352;2022-12-07T16:26:18;6.00;99.90
28761;DHT22;15917;50.014;8.352;2022-12-07T16:28:44;6.00;99.90
28761;DHT22;15917;50.014;8.352;2022-12-07T16:31:13;6.00;99.90
28761;DHT22;15917;50.014;8.352;2022-12-07T16:33:40;6.00;99.90
28761;DHT22;15917;50.014;8.352;2022-12-07T16:36:07;6.00;99.90
28761;DHT22;15917;50.014;8.352;2022-12-07T16:38:33;6.00;99.90
28761;DHT22;15917;50.014;8.352;2022-12-07T16:40:59;5.90;99.90
28761;DHT22;15917;50.014;8.352;2022-12-07T16:43:25;5.90;99.90
28761;DHT22;15917;50.014;8.352;2022-12-07T16:45:51;5.90;99.90
28761;DHT22;15917;50.014;8.352;2022-12-07T16:48:17;5.90;99.90
28761;DHT22;15917;50.014;8.352;2022-12-07T16:50:43;5.90;99.90
28761;DHT22;15917;50.014;8.352;2022-12-07T16:53:10;5.90;99.90
28761;DHT22;15917;50.014;8.352;2022-12-07T16:55:42;5.80;99.90
28761;DHT22;15917;50.014;8.352;2022-12-07T16:58:08;5.80;99.90
28761;DHT22;15917;50.014;8.352;2022-12-07T17:00:34;5.80;99.90
28761;DHT22;15917;50.014;8.352;2022-12-07T17:03:00;5.80;99.90
28761;DHT22;15917;50.014;8.352;2022-12-07T17:05:26;5.80;99.90
28761;DHT22;15917;50.014;8.352;2022-12-07T17:07:53;7.20;99.90
28761;DHT22;15917;50.014;8.352;2022-12-07T17:10:19;8.00;99.90
28761;DHT22;15917;50.014;8.352;2022-12-07T17:12:44;9.00;99.90
28761;DHT22;15917;50.014;8.352;2022-12-07T17:15:10;9.00;99.90
28761;DHT22;15917;50.014;8.352;2022-12-07T17:17:46;8.50;99.90
28761;DHT22;15917;50.014;8.352;2022-12-07T17:20:12;7.80;99.90
28761;DHT22;15917;50.014;8.352;2022-12-07T17:22:38;7.20;99.90
28761;DHT22;15917;50.014;8.352;2022-12-07T17:25:04;6.80;99.90
28761;DHT22;15917;50.014;8.352;2022-12-07T17:27:31;6.50;99.90
28761;DHT22;15917;50.014;8.352;2022-12-07T17:29:56;6.40;99.90
28761;DHT22;15917;50.014;8.352;2022-12-07T17:32:22;6.30;99.90
28761;DHT22;15917;50.014;8.352;2022-12-07T17:34:48;6.10;99.90
28761;DHT22;15917;50.014;8.352;2022-12-07T17:37:13;5.90;99.90
28761;DHT22;15917;50.014;8.352;2022-12-07T17:39:39;5.90;99.90
28761;DHT22;15917;50.014;8.352;2022-12-07T17:42:05;5.80;99.90
28761;DHT22;15917;50.014;8.352;2022-12-07T17:44:49;5.70;99.90
28761;DHT22;15917;50.014;8.352;2022-12-07T17:47:14;5.60;99.90
28761;DHT22;15917;50.014;8.352;2022-12-07T17:49:42;5.60;99.90
28761;DHT22;15917;50.014;8.352;2022-12-07T17:52:09;5.70;99.90
28761;DHT22;15917;50.014;8.352;2022-12-07T17:54:53;5.70;99.90
28761;DHT22;15917;50.014;8.352;2022-12-07T17:57:19;5.80;99.90